Time;durP1;ratioP1;P1;durP2;ratioP2;P2;SDS_P1;SDS_P2;PMS_P1;PMS_P2;Temp;Humidity;BMP_temperature;BMP_pressure;BME280_temperature;BME280_humidity;BME280_pressure;Samples;Min_cycle;Max_cycle;Signal;HPM_P1;HPM_P2
2021/09/17 00:00:46;;;;;;;5.07;4.67;;;16.30;99.90;;;;;;5118802;27;20484;-83
2021/09/17 00:03:13;;;;;;;5.07;4.67;;;16.30;99.90;;;;;;5117543;27;20475;-81
2021/09/17 00:05:39;;;;;;;4.93;4.53;;;16.30;99.90;;;;;;5115343;27;20475;-82
2021/09/17 00:08:06;;;;;;;6.20;5.60;;;16.30;99.90;;;;;;5119039;27;20550;-82
2021/09/17 00:10:33;;;;;;;5.80;5.20;;;16.20;99.90;;;;;;5117762;27;20464;-82
2021/09/17 00:13:03;;;;;;;5.57;4.97;;;16.20;99.90;;;;;;5121403;27;20479;-81
2021/09/17 00:15:30;;;;;;;5.37;4.87;;;16.20;99.90;;;;;;5118639;27;20837;-82
2021/09/17 00:17:58;;;;;;;6.17;5.60;;;16.20;99.90;;;;;;5123123;27;20656;-81
2021/09/17 00:20:26;;;;;;;6.13;5.50;;;16.10;99.90;;;;;;5121914;27;20493;-82
2021/09/17 00:22:53;;;;;;;5.83;5.17;;;16.10;99.90;;;;;;5122151;27;20962;-81
2021/09/17 00:25:20;;;;;;;6.70;6.10;;;16.10;99.90;;;;;;5121995;27;20483;-83
2021/09/17 00:27:49;;;;;;;7.00;6.30;;;16.10;99.90;;;;;;5118861;27;20601;-82
2021/09/17 00:30:17;;;;;;;8.07;6.20;;;16.10;99.90;;;;;;5122557;27;20825;-82
2021/09/17 00:32:47;;;;;;;6.63;5.90;;;16.00;99.90;;;;;;5123266;27;20491;-81
2021/09/17 00:35:16;;;;;;;6.97;5.77;;;16.00;99.90;;;;;;5118752;27;20492;-82
2021/09/17 00:37:44;;;;;;;6.93;6.27;;;16.00;99.90;;;;;;5117439;27;20463;-82
2021/09/17 00:40:12;;;;;;;8.40;7.60;;;16.00;99.90;;;;;;5122640;27;20456;-83
2021/09/17 00:42:40;;;;;;;8.37;7.43;;;16.00;99.90;;;;;;5116232;27;20509;-82
2021/09/17 00:45:10;;;;;;;8.63;7.83;;;16.00;99.90;;;;;;5118584;27;20465;-82
2021/09/17 00:47:41;;;;;;;7.93;7.17;;;16.00;99.90;;;;;;5121215;27;20890;-81
2021/09/17 00:50:11;;;;;;;7.20;6.50;;;16.00;99.90;;;;;;5114292;27;20490;-83
2021/09/17 00:52:40;;;;;;;6.60;6.00;;;16.00;99.90;;;;;;5114780;27;20574;-81
2021/09/17 00:55:08;;;;;;;7.93;6.00;;;16.00;99.90;;;;;;5119647;27;20491;-81
2021/09/17 00:57:37;;;;;;;10.13;6.97;;;16.00;99.90;;;;;;5121803;28;20551;-82
2021/09/17 01:00:06;;;;;;;7.97;7.07;;;16.00;99.90;;;;;;5112977;28;20485;-83
2021/09/17 01:02:34;;;;;;;8.17;7.00;;;16.00;99.90;;;;;;5123909;28;20567;-81
2021/09/17 01:05:03;;;;;;;7.00;6.27;;;16.00;99.90;;;;;;5116742;27;20971;-82
2021/09/17 01:07:30;;;;;;;7.00;6.30;;;16.00;99.90;;;;;;5112683;27;20552;-82
2021/09/17 01:10:00;;;;;;;9.20;8.30;;;16.00;99.90;;;;;;5120403;28;20575;-83
2021/09/17 01:12:27;;;;;;;13.00;8.57;;;16.00;99.90;;;;;;5119139;27;20561;-82
2021/09/17 01:14:55;;;;;;;9.10;8.20;;;16.10;99.90;;;;;;5112209;28;20458;-83
2021/09/17 01:17:22;;;;;;;10.20;9.10;;;16.10;99.90;;;;;;5123343;28;20460;-83
2021/09/17 01:19:49;;;;;;;13.70;9.60;;;16.10;99.90;;;;;;5122062;27;20471;-83
2021/09/17 01:22:17;;;;;;;10.80;9.80;;;16.10;99.90;;;;;;5116865;27;20537;-82
2021/09/17 01:24:46;;;;;;;11.60;10.37;;;16.10;99.90;;;;;;5124837;27;20562;-82
2021/09/17 01:27:15;;;;;;;12.63;11.47;;;16.10;99.90;;;;;;5120298;28;20906;-82
2021/09/17 01:29:42;;;;;;;11.63;9.97;;;16.10;99.90;;;;;;5116090;28;20461;-84
2021/09/17 01:32:35;;;;;;;10.63;8.90;;;16.20;99.90;;;;;;5117693;28;20476;-83
2021/09/17 01:35:04;;;;;;;10.70;9.60;;;16.20;99.90;;;;;;5109939;27;20456;-81
2021/09/17 01:37:33;;;;;;;12.03;10.70;;;16.20;99.90;;;;;;5119012;27;20998;-81
2021/09/17 01:40:00;;;;;;;12.87;11.40;;;16.20;99.90;;;;;;5115358;27;21061;-83
2021/09/17 01:42:27;;;;;;;12.93;10.93;;;16.20;99.90;;;;;;5115293;27;20547;-81
2021/09/17 01:44:54;;;;;;;14.40;12.90;;;16.20;99.90;;;;;;5122268;27;20545;-82
2021/09/17 01:47:21;;;;;;;15.33;13.07;;;16.20;99.90;;;;;;5118018;27;20469;-83
2021/09/17 01:49:50;;;;;;;15.33;13.20;;;16.30;99.90;;;;;;5115292;27;21026;-81
2021/09/17 01:52:18;;;;;;;16.43;14.40;;;16.30;99.90;;;;;;5126875;27;20461;-82
2021/09/17 01:54:48;;;;;;;15.80;14.00;;;16.30;99.90;;;;;;5126589;27;20836;-82
2021/09/17 01:57:15;;;;;;;15.17;13.20;;;16.40;99.90;;;;;;5122566;27;20459;-81
2021/09/17 01:59:42;;;;;;;16.73;14.20;;;16.40;99.90;;;;;;5123973;27;20908;-81
2021/09/17 02:02:09;;;;;;;17.33;13.70;;;16.40;99.90;;;;;;5121044;27;20558;-82
2021/09/17 02:04:37;;;;;;;17.37;14.07;;;16.50;99.90;;;;;;5122256;27;20518;-83
2021/09/17 02:07:04;;;;;;;18.47;14.17;;;16.50;99.90;;;;;;5123374;27;20499;-82
2021/09/17 02:09:31;;;;;;;20.83;16.77;;;16.50;99.90;;;;;;5121244;27;20541;-84
2021/09/17 02:12:00;;;;;;;18.67;15.20;;;16.50;99.90;;;;;;5125537;27;20478;-83
2021/09/17 02:14:28;;;;;;;18.80;13.83;;;16.60;99.90;;;;;;5118070;27;20494;-82
2021/09/17 02:16:55;;;;;;;18.77;14.37;;;16.60;99.90;;;;;;5119876;27;20804;-82
2021/09/17 02:19:22;;;;;;;16.37;14.67;;;16.60;99.90;;;;;;5117813;27;21058;-84
2021/09/17 02:21:52;;;;;;;19.57;15.97;;;16.60;99.90;;;;;;5120369;27;20458;-82
2021/09/17 02:24:19;;;;;;;17.67;15.63;;;16.60;99.90;;;;;;5126445;27;20469;-84
2021/09/17 02:26:47;;;;;;;16.73;13.33;;;16.60;99.90;;;;;;5122444;27;20491;-81
2021/09/17 02:29:16;;;;;;;15.70;14.00;;;16.70;99.90;;;;;;5122591;27;20548;-83
2021/09/17 02:31:44;;;;;;;16.40;14.57;;;16.70;99.90;;;;;;5126273;27;20639;-83
2021/09/17 02:34:11;;;;;;;19.73;15.53;;;16.70;99.90;;;;;;5126305;27;20490;-82
2021/09/17 02:36:39;;;;;;;18.17;14.53;;;16.70;99.90;;;;;;5122534;27;20947;-82
2021/09/17 02:39:07;;;;;;;19.10;15.07;;;16.70;99.90;;;;;;5124877;27;20451;-82
2021/09/17 02:41:34;;;;;;;16.87;14.67;;;16.70;99.90;;;;;;5114569;27;20855;-84
2021/09/17 02:44:01;;;;;;;17.57;14.90;;;16.70;99.90;;;;;;5121415;27;20880;-84
2021/09/17 02:46:31;;;;;;;20.40;14.90;;;16.70;99.90;;;;;;5125106;27;20477;-81
2021/09/17 02:48:59;;;;;;;14.63;13.23;;;16.70;99.90;;;;;;5111767;27;20551;-82
2021/09/17 02:51:26;;;;;;;15.30;13.30;;;16.70;99.90;;;;;;5121257;27;20812;-83
2021/09/17 02:53:53;;;;;;;17.67;14.33;;;16.70;99.90;;;;;;5123541;27;20484;-84
2021/09/17 02:56:22;;;;;;;21.63;14.93;;;16.70;99.90;;;;;;5129073;27;20460;-82
2021/09/17 02:58:49;;;;;;;18.67;15.30;;;16.70;99.90;;;;;;5118725;27;20465;-81
2021/09/17 03:01:16;;;;;;;17.83;13.97;;;16.70;99.90;;;;;;5120334;27;20486;-83
2021/09/17 03:03:46;;;;;;;17.43;14.27;;;16.70;99.90;;;;;;5118310;27;20458;-82
2021/09/17 03:06:14;;;;;;;19.30;15.47;;;16.70;99.90;;;;;;5121487;27;20840;-83
2021/09/17 03:08:41;;;;;;;20.90;16.50;;;16.80;99.90;;;;;;5123452;27;20551;-82
2021/09/17 03:11:08;;;;;;;18.10;15.37;;;16.80;99.90;;;;;;5124148;27;20461;-81
2021/09/17 03:13:35;;;;;;;18.37;13.93;;;16.80;99.90;;;;;;5117938;27;20476;-81
2021/09/17 03:16:05;;;;;;;18.73;15.40;;;16.80;99.90;;;;;;5123219;27;20563;-81
2021/09/17 03:18:32;;;;;;;17.77;15.17;;;16.70;99.90;;;;;;5115617;27;20464;-83
2021/09/17 03:21:01;;;;;;;18.50;16.37;;;16.80;99.90;;;;;;5115964;27;20498;-82
2021/09/17 03:23:29;;;;;;;19.63;15.17;;;16.80;99.90;;;;;;5123113;27;20453;-83
2021/09/17 03:25:57;;;;;;;20.33;13.87;;;16.70;99.90;;;;;;5127214;27;20482;-82
2021/09/17 03:28:24;;;;;;;15.37;13.87;;;16.80;99.90;;;;;;5113231;27;20473;-83
2021/09/17 03:30:52;;;;;;;15.57;13.97;;;16.80;99.90;;;;;;5120453;27;20463;-84
2021/09/17 03:33:20;;;;;;;19.90;15.27;;;16.80;99.90;;;;;;5121193;27;20488;-84
2021/09/17 03:35:47;;;;;;;20.80;14.43;;;16.70;99.90;;;;;;5124781;27;20483;-82
2021/09/17 03:38:16;;;;;;;22.40;15.17;;;16.70;99.90;;;;;;5122051;27;20544;-82
2021/09/17 03:40:43;;;;;;;19.03;15.93;;;16.80;99.90;;;;;;5120185;27;20551;-83
2021/09/17 03:43:10;;;;;;;19.10;16.03;;;16.80;99.90;;;;;;5123906;27;20820;-83
2021/09/17 03:45:38;;;;;;;17.63;15.17;;;16.80;99.90;;;;;;5116433;27;20511;-84
2021/09/17 03:48:08;;;;;;;18.27;16.27;;;16.80;99.90;;;;;;5121987;27;20464;-82
2021/09/17 03:50:35;;;;;;;15.43;14.00;;;16.80;99.90;;;;;;5119297;27;20918;-82
2021/09/17 03:53:02;;;;;;;17.60;15.27;;;16.80;99.90;;;;;;5121468;27;20606;-83
2021/09/17 03:55:32;;;;;;;17.13;15.50;;;16.80;99.90;;;;;;5120169;27;20958;-83
2021/09/17 03:58:00;;;;;;;17.90;15.87;;;16.90;99.90;;;;;;5122230;27;20489;-82
2021/09/17 04:00:28;;;;;;;17.53;15.80;;;16.90;99.90;;;;;;5119520;27;20457;-82
2021/09/17 04:02:55;;;;;;;16.13;14.33;;;16.90;99.90;;;;;;5122430;27;20519;-83
2021/09/17 04:05:22;;;;;;;20.57;15.40;;;16.90;99.90;;;;;;5119399;27;20465;-82
2021/09/17 04:07:50;;;;;;;18.63;16.23;;;16.90;99.90;;;;;;5123225;27;20543;-83
2021/09/17 04:10:19;;;;;;;23.00;16.83;;;16.90;99.90;;;;;;5119491;27;20464;-81
2021/09/17 04:12:48;;;;;;;23.20;17.83;;;16.90;99.90;;;;;;5118289;27;20459;-82
2021/09/17 04:15:15;;;;;;;18.97;16.83;;;17.00;99.90;;;;;;5116265;27;20493;-83
2021/09/17 04:17:43;;;;;;;19.27;16.73;;;17.00;99.90;;;;;;5118985;27;20981;-82
2021/09/17 04:20:10;;;;;;;22.80;16.70;;;17.00;99.90;;;;;;5117231;27;20821;-84
2021/09/17 04:22:38;;;;;;;18.03;16.07;;;17.00;99.90;;;;;;5117607;27;20467;-82
2021/09/17 04:25:06;;;;;;;17.53;15.63;;;17.00;99.90;;;;;;5116437;27;20498;-83
2021/09/17 04:27:33;;;;;;;19.17;17.17;;;16.90;99.90;;;;;;5119166;27;20601;-83
2021/09/17 04:30:18;;;;;;;20.53;17.10;;;16.90;99.90;;;;;;5115651;27;20463;-82
2021/09/17 04:32:46;;;;;;;21.80;16.77;;;16.90;99.90;;;;;;5117707;27;20456;-83
2021/09/17 04:35:14;;;;;;;21.23;17.10;;;16.90;99.90;;;;;;5119880;27;20594;-84
2021/09/17 04:37:42;;;;;;;20.73;18.20;;;16.90;99.90;;;;;;5118732;27;20818;-82
2021/09/17 04:40:12;;;;;;;22.77;19.03;;;16.90;99.90;;;;;;5112973;27;20464;-82
2021/09/17 04:42:39;;;;;;;26.10;19.23;;;16.90;99.90;;;;;;5111828;27;20551;-81
2021/09/17 04:45:08;;;;;;;19.63;17.53;;;16.90;99.90;;;;;;5107193;28;20577;-82
2021/09/17 04:47:37;;;;;;;22.87;18.60;;;16.90;99.90;;;;;;5116301;27;20982;-84
2021/09/17 04:50:05;;;;;;;20.10;18.10;;;16.90;99.90;;;;;;5118414;27;20466;-82
2021/09/17 04:52:32;;;;;;;18.57;16.57;;;16.90;99.90;;;;;;5118814;27;20466;-82
2021/09/17 04:54:59;;;;;;;20.70;18.50;;;16.90;99.90;;;;;;5122140;28;20514;-83
2021/09/17 04:57:27;;;;;;;21.73;17.40;;;16.90;99.90;;;;;;5114124;28;20449;-83
2021/09/17 04:59:55;;;;;;;21.30;16.70;;;16.90;99.90;;;;;;5107831;28;20972;-82
2021/09/17 05:02:22;;;;;;;18.70;16.70;;;16.90;99.90;;;;;;5118631;28;20833;-83
2021/09/17 05:04:51;;;;;;;24.17;18.00;;;16.80;99.90;;;;;;5109806;28;20460;-84
2021/09/17 05:07:18;;;;;;;23.77;20.00;;;16.80;99.90;;;;;;5116528;28;20466;-84
2021/09/17 05:09:46;;;;;;;24.10;19.40;;;16.80;99.90;;;;;;5116438;28;20474;-81
2021/09/17 05:12:13;;;;;;;21.80;18.67;;;16.80;99.90;;;;;;5117553;28;20458;-81
2021/09/17 05:14:40;;;;;;;21.40;18.33;;;16.80;99.90;;;;;;5113351;27;20493;-82
2021/09/17 05:17:07;;;;;;;23.40;19.93;;;16.80;99.90;;;;;;5119900;27;20499;-84
2021/09/17 05:19:34;;;;;;;21.80;17.90;;;16.80;99.90;;;;;;5119424;27;20464;-83
2021/09/17 05:22:03;;;;;;;21.27;18.70;;;16.80;99.90;;;;;;5119546;27;20955;-81
2021/09/17 05:24:31;;;;;;;25.13;18.83;;;16.80;99.90;;;;;;5115420;27;20568;-83
2021/09/17 05:26:58;;;;;;;22.30;18.77;;;16.90;99.90;;;;;;5121273;27;20834;-83
2021/09/17 05:29:26;;;;;;;23.47;18.93;;;16.90;99.90;;;;;;5123428;27;20467;-83
2021/09/17 05:31:54;;;;;;;23.27;17.70;;;16.90;99.90;;;;;;5115939;27;20980;-82
2021/09/17 05:34:21;;;;;;;22.00;18.70;;;16.90;99.90;;;;;;5117762;27;20485;-83
2021/09/17 05:36:49;;;;;;;21.60;18.00;;;16.90;99.90;;;;;;5122751;27;20545;-82
2021/09/17 05:39:17;;;;;;;21.40;19.03;;;17.00;99.90;;;;;;5120444;27;20501;-82
2021/09/17 05:41:44;;;;;;;21.40;18.13;;;17.00;99.90;;;;;;5118198;27;20453;-84
2021/09/17 05:44:11;;;;;;;20.50;18.27;;;17.00;99.90;;;;;;5119872;27;20460;-82
2021/09/17 05:46:38;;;;;;;21.00;17.50;;;17.00;99.90;;;;;;5117405;27;20596;-83
2021/09/17 05:49:05;;;;;;;22.20;17.90;;;17.00;99.90;;;;;;5118704;27;20468;-83
2021/09/17 05:51:32;;;;;;;21.83;18.20;;;17.10;99.90;;;;;;5113877;27;20576;-84
2021/09/17 05:53:59;;;;;;;20.40;18.20;;;17.00;99.90;;;;;;5118302;27;20542;-82
2021/09/17 05:56:27;;;;;;;20.27;18.17;;;17.00;99.90;;;;;;5119361;27;20985;-84
2021/09/17 05:58:55;;;;;;;26.07;17.80;;;17.00;99.90;;;;;;5119993;27;20974;-82
2021/09/17 06:01:22;;;;;;;22.50;17.93;;;17.10;99.90;;;;;;5110105;27;20478;-82
2021/09/17 06:03:49;;;;;;;23.77;18.93;;;17.10;99.90;;;;;;5113210;27;20479;-83
2021/09/17 06:06:18;;;;;;;20.60;17.33;;;17.10;99.90;;;;;;5117693;27;20471;-81
2021/09/17 06:08:45;;;;;;;23.97;18.00;;;17.10;99.90;;;;;;5117368;27;20495;-82
2021/09/17 06:11:12;;;;;;;20.40;18.20;;;17.10;99.90;;;;;;5123259;27;20465;-82
2021/09/17 06:13:41;;;;;;;26.70;19.63;;;17.10;99.90;;;;;;5115104;27;20466;-82
2021/09/17 06:16:08;;;;;;;24.27;19.50;;;17.10;99.90;;;;;;5119637;27;20942;-83
2021/09/17 06:18:36;;;;;;;22.30;18.20;;;17.20;99.90;;;;;;5115040;27;20461;-83
2021/09/17 06:21:03;;;;;;;25.77;18.40;;;17.20;99.90;;;;;;5117095;27;20468;-82
2021/09/17 06:23:30;;;;;;;25.43;19.87;;;17.30;99.90;;;;;;5119561;27;20458;-82
2021/09/17 06:25:58;;;;;;;22.80;18.10;;;17.30;99.90;;;;;;5113164;27;20472;-83
2021/09/17 06:28:26;;;;;;;21.63;17.50;;;17.30;99.90;;;;;;5113251;27;20519;-83
2021/09/17 06:30:55;;;;;;;23.87;19.90;;;17.30;99.90;;;;;;5118450;27;20738;-83
2021/09/17 06:33:22;;;;;;;21.93;19.47;;;17.30;99.90;;;;;;5114345;27;20968;-83
2021/09/17 06:35:49;;;;;;;24.33;20.30;;;17.40;99.90;;;;;;5121099;27;20484;-83
2021/09/17 06:38:15;;;;;;;27.00;20.40;;;17.40;99.90;;;;;;5114258;27;20558;-83
2021/09/17 06:40:42;;;;;;;25.93;19.70;;;17.40;99.90;;;;;;5120443;27;20556;-82
2021/09/17 06:43:09;;;;;;;26.50;19.27;;;17.40;99.90;;;;;;5120610;27;20462;-83
2021/09/17 06:45:36;;;;;;;26.10;20.43;;;17.40;99.90;;;;;;5116574;27;20852;-82
2021/09/17 06:48:05;;;;;;;29.87;21.57;;;17.50;99.90;;;;;;5117754;27;20696;-83
2021/09/17 06:50:32;;;;;;;24.57;20.10;;;17.50;99.90;;;;;;5116222;27;20577;-84
2021/09/17 06:53:00;;;;;;;28.13;19.77;;;17.60;99.90;;;;;;5114889;27;21042;-83
2021/09/17 06:55:28;;;;;;;24.40;19.07;;;17.60;99.90;;;;;;5112566;27;20585;-82
2021/09/17 06:57:56;;;;;;;25.10;18.60;;;17.60;99.90;;;;;;5115316;27;20498;-84
2021/09/17 07:00:25;;;;;;;21.13;18.60;;;17.60;99.90;;;;;;5114225;27;20493;-85
2021/09/17 07:02:53;;;;;;;23.63;19.47;;;17.60;99.90;;;;;;5114082;27;20465;-84
2021/09/17 07:05:22;;;;;;;20.50;18.17;;;17.70;99.90;;;;;;5116243;27;21017;-83
2021/09/17 07:07:49;;;;;;;20.60;17.00;;;17.70;99.90;;;;;;5109896;27;20548;-83
2021/09/17 07:10:18;;;;;;;22.20;18.33;;;17.70;99.90;;;;;;5119592;27;20468;-83
2021/09/17 07:12:45;;;;;;;22.40;17.73;;;17.80;99.90;;;;;;5120806;27;20462;-83
2021/09/17 07:15:14;;;;;;;21.20;16.80;;;17.80;99.90;;;;;;5115809;27;20479;-84
2021/09/17 07:17:41;;;;;;;21.40;17.17;;;17.80;99.90;;;;;;5110250;27;20546;-84
2021/09/17 07:20:10;;;;;;;22.77;17.70;;;17.80;99.90;;;;;;5115433;27;20554;-83
2021/09/17 07:22:38;;;;;;;21.13;18.30;;;17.90;99.90;;;;;;5110010;27;20549;-84
2021/09/17 07:25:07;;;;;;;20.67;18.13;;;17.90;99.90;;;;;;5115860;27;20487;-85
2021/09/17 07:27:34;;;;;;;22.20;17.20;;;17.90;99.90;;;;;;5107300;27;20590;-84
2021/09/17 07:30:02;;;;;;;23.50;19.57;;;17.90;99.90;;;;;;5112178;27;20547;-88
2021/09/17 07:32:29;;;;;;;20.43;18.27;;;18.00;99.90;;;;;;5113605;27;20946;-84
2021/09/17 07:34:56;;;;;;;21.53;18.00;;;18.00;99.90;;;;;;5111912;27;20580;-86
2021/09/17 07:37:24;;;;;;;28.30;17.93;;;18.10;99.90;;;;;;5114037;27;20580;-82
2021/09/17 07:39:52;;;;;;;25.17;18.30;;;18.10;99.90;;;;;;5111124;27;20966;-83
2021/09/17 07:42:19;;;;;;;31.10;19.57;;;18.10;99.90;;;;;;5109721;27;20658;-81
2021/09/17 07:44:46;;;;;;;35.37;18.07;;;18.20;99.90;;;;;;5110344;27;20547;-83
2021/09/17 07:47:13;;;;;;;21.87;17.10;;;18.20;99.90;;;;;;5108575;27;20470;-83
2021/09/17 07:49:41;;;;;;;21.60;17.70;;;18.20;99.90;;;;;;5113200;27;20975;-84
2021/09/17 07:52:09;;;;;;;23.23;18.67;;;18.20;99.90;;;;;;5111090;27;20551;-84
2021/09/17 07:54:36;;;;;;;21.20;17.00;;;18.30;99.90;;;;;;5116586;27;20478;-83
2021/09/17 07:57:05;;;;;;;31.23;17.97;;;18.30;99.90;;;;;;5110245;27;20981;-83
2021/09/17 07:59:32;;;;;;;22.40;17.70;;;18.30;99.90;;;;;;5111344;27;20463;-84
2021/09/17 08:02:00;;;;;;;18.80;15.67;;;18.30;99.90;;;;;;5116731;27;20463;-84
2021/09/17 08:04:27;;;;;;;22.40;18.03;;;18.40;99.90;;;;;;5111408;27;20474;-84
2021/09/17 08:06:54;;;;;;;20.30;14.80;;;18.40;99.90;;;;;;5112339;27;20988;-83
2021/09/17 08:09:21;;;;;;;23.37;17.47;;;18.50;99.90;;;;;;5115386;27;20546;-83
2021/09/17 08:11:48;;;;;;;19.90;16.90;;;18.50;99.90;;;;;;5116454;27;20459;-86
2021/09/17 08:14:17;;;;;;;19.37;17.37;;;18.50;99.90;;;;;;5117961;27;20474;-83
2021/09/17 08:16:45;;;;;;;18.27;16.20;;;18.50;99.90;;;;;;5109866;27;20500;-83
2021/09/17 08:19:12;;;;;;;21.07;17.40;;;18.60;99.90;;;;;;5110598;27;20471;-83
2021/09/17 08:21:43;;;;;;;18.90;16.17;;;18.60;99.90;;;;;;5112165;27;20457;-84
2021/09/17 08:24:14;;;;;;;19.70;16.30;;;18.60;99.90;;;;;;5117858;27;20455;-82
2021/09/17 08:26:42;;;;;;;25.37;16.63;;;18.60;99.90;;;;;;5119163;27;20567;-82
2021/09/17 08:29:09;;;;;;;22.47;17.67;;;18.60;99.90;;;;;;5112744;27;20463;-86
2021/09/17 08:31:38;;;;;;;22.57;17.23;;;18.70;99.90;;;;;;5115099;27;20464;-84
2021/09/17 08:34:06;;;;;;;25.77;16.00;;;18.70;99.90;;;;;;5113303;27;20495;-85
2021/09/17 08:36:33;;;;;;;29.70;18.40;;;18.70;99.90;;;;;;5117459;27;20490;-83
2021/09/17 08:39:00;;;;;;;18.73;15.00;;;18.80;99.90;;;;;;5107631;27;20453;-85
2021/09/17 08:41:27;;;;;;;19.60;16.20;;;18.80;99.90;;;;;;5115142;27;20464;-85
2021/09/17 08:43:55;;;;;;;19.40;15.40;;;18.90;99.90;;;;;;5110077;27;20469;-83
2021/09/17 08:46:22;;;;;;;25.53;17.40;;;18.90;99.90;;;;;;5123115;27;20555;-86
2021/09/17 08:48:54;;;;;;;25.13;17.70;;;18.90;99.90;;;;;;5117720;27;20452;-83
2021/09/17 08:51:23;;;;;;;22.03;17.80;;;19.00;99.90;;;;;;5114550;27;20978;-85
2021/09/17 08:53:53;;;;;;;22.03;16.00;;;19.10;99.90;;;;;;5109436;28;20460;-83
2021/09/17 08:56:21;;;;;;;23.60;19.20;;;19.10;99.90;;;;;;5115514;28;20488;-83
2021/09/17 08:58:49;;;;;;;21.00;18.43;;;19.10;99.90;;;;;;5120952;28;20512;-84
2021/09/17 09:01:27;;;;;;;27.37;19.30;;;19.20;99.90;;;;;;5115448;28;20470;-87
2021/09/17 09:04:02;;;;;;;22.33;17.67;;;19.20;99.90;;;;;;5109257;28;20800;-84
2021/09/17 09:06:35;;;;;;;28.80;19.30;;;19.20;99.90;;;;;;5113390;28;20895;-83
2021/09/17 09:09:08;;;;;;;26.80;16.37;;;19.30;99.90;;;;;;5107714;28;20468;-83
2021/09/17 09:11:36;;;;;;;28.17;18.37;;;19.30;99.90;;;;;;5107009;28;20989;-83
2021/09/17 09:14:07;;;;;;;22.00;18.10;;;19.40;99.90;;;;;;5118542;28;21374;-85
2021/09/17 09:16:38;;;;;;;23.87;16.70;;;19.40;99.90;;;;;;5113155;28;20492;-83
2021/09/17 09:19:26;;;;;;;26.53;18.67;;;19.50;99.90;;;;;;5114901;28;20536;-86
2021/09/17 09:22:09;;;;;;;23.57;20.40;;;19.50;99.90;;;;;;5110398;28;20458;-84
2021/09/17 09:24:41;;;;;;;25.73;16.50;;;19.60;99.90;;;;;;5113012;28;20479;-82
2021/09/17 09:27:15;;;;;;;23.80;18.60;;;19.60;99.90;;;;;;5111588;28;20541;-84
2021/09/17 09:29:44;;;;;;;31.40;19.67;;;19.60;99.90;;;;;;5111553;28;20466;-86
2021/09/17 09:32:25;;;;;;;26.83;19.30;;;19.70;99.90;;;;;;5116599;28;20542;-85
2021/09/17 09:34:56;;;;;;;23.37;19.97;;;19.70;99.90;;;;;;5117510;28;20467;-84
2021/09/17 09:37:24;;;;;;;22.97;18.97;;;19.80;99.90;;;;;;5112727;27;20549;-85
2021/09/17 09:39:57;;;;;;;21.90;19.00;;;19.80;99.90;;;;;;5112442;28;20492;-86
2021/09/17 09:42:33;;;;;;;24.07;19.80;;;19.80;99.90;;;;;;5118206;28;20536;-84
2021/09/17 09:45:13;;;;;;;23.23;19.53;;;19.80;99.90;;;;;;5110196;28;20567;-84
2021/09/17 09:47:41;;;;;;;22.33;17.90;;;19.80;99.90;;;;;;5109790;28;20459;-83
2021/09/17 09:50:11;;;;;;;21.33;19.10;;;19.90;99.90;;;;;;5114544;28;21205;-84
2021/09/17 09:52:39;;;;;;;23.53;19.17;;;19.90;99.90;;;;;;5108024;28;20759;-85
2021/09/17 09:55:08;;;;;;;23.80;18.17;;;19.90;99.90;;;;;;5109017;28;20493;-83
2021/09/17 09:57:37;;;;;;;24.13;18.27;;;19.90;99.90;;;;;;5122478;28;20517;-85
2021/09/17 10:00:08;;;;;;;26.00;18.00;;;20.00;99.90;;;;;;5110354;27;20678;-86
2021/09/17 10:02:37;;;;;;;22.07;17.23;;;20.00;99.90;;;;;;5118398;27;20466;-85
2021/09/17 10:05:04;;;;;;;23.67;17.33;;;20.10;99.90;;;;;;5111086;27;20479;-84
2021/09/17 10:07:34;;;;;;;20.33;18.20;;;20.10;99.90;;;;;;5109131;27;20919;-86
2021/09/17 10:10:03;;;;;;;20.33;17.13;;;20.10;99.90;;;;;;5118542;27;20465;-86
2021/09/17 10:12:30;;;;;;;19.70;16.30;;;20.20;99.90;;;;;;5118331;27;20459;-84
2021/09/17 10:14:59;;;;;;;19.27;14.50;;;20.20;99.90;;;;;;5115307;27;20468;-84
2021/09/17 10:17:29;;;;;;;17.67;13.37;;;20.30;99.90;;;;;;5115455;27;20533;-85
2021/09/17 10:19:59;;;;;;;17.60;15.40;;;20.40;99.90;;;;;;5115611;27;20466;-84
2021/09/17 10:22:30;;;;;;;18.23;14.87;;;20.40;99.90;;;;;;5114807;27;20975;-84
2021/09/17 10:25:11;;;;;;;20.80;16.10;;;20.40;99.90;;;;;;5121932;27;20481;-85
2021/09/17 10:27:38;;;;;;;21.60;16.33;;;20.50;99.90;;;;;;5111048;27;20567;-85
2021/09/17 10:30:07;;;;;;;20.70;15.60;;;20.50;99.90;;;;;;5120272;27;20468;-84
2021/09/17 10:32:38;;;;;;;18.83;14.50;;;20.60;99.90;;;;;;5117636;27;20635;-83
2021/09/17 10:35:11;;;;;;;21.20;14.90;;;20.60;99.90;;;;;;5108683;27;20799;-84
2021/09/17 10:38:02;;;;;;;18.50;14.37;;;20.60;99.90;;;;;;5106250;27;20456;-85
2021/09/17 10:41:03;;;;;;;22.77;16.23;;;20.70;99.90;;;;;;5113588;27;20488;-84
2021/09/17 10:43:38;;;;;;;23.47;15.70;;;20.70;99.90;;;;;;5114885;27;20491;-85
2021/09/17 10:46:07;;;;;;;31.30;12.70;;;20.80;99.90;;;;;;5122199;27;20538;-83
2021/09/17 10:48:55;;;;;;;20.73;14.90;;;20.80;99.90;;;;;;5122265;27;21225;-84
2021/09/17 10:51:34;;;;;;;26.50;16.40;;;20.90;99.90;;;;;;5116021;27;20518;-85
2021/09/17 10:54:06;;;;;;;21.60;14.60;;;20.90;99.90;;;;;;5116697;27;20950;-85
2021/09/17 10:57:04;;;;;;;19.53;13.50;;;21.00;99.90;;;;;;5125773;27;20572;-84
2021/09/17 10:59:44;;;;;;;20.37;14.63;;;21.10;99.90;;;;;;5104344;27;20445;-84
2021/09/17 11:02:12;;;;;;;23.77;14.30;;;21.10;99.90;;;;;;5131842;27;20705;-85
2021/09/17 11:04:42;;;;;;;18.97;13.17;;;21.20;99.90;;;;;;5122630;27;20543;-85
2021/09/17 11:07:40;;;;;;;18.23;13.53;;;21.20;99.90;;;;;;5122812;27;20456;-84
2021/09/17 11:10:23;;;;;;;18.80;14.57;;;21.30;99.90;;;;;;5063971;27;20471;-84
2021/09/17 11:12:51;;;;;;;13.80;11.20;;;21.30;99.90;;;;;;5117923;27;20465;-84
2021/09/17 11:15:24;;;;;;;22.83;14.03;;;21.40;99.90;;;;;;5114313;27;20467;-83
2021/09/17 11:17:55;;;;;;;17.30;12.60;;;21.40;99.90;;;;;;5121004;27;20456;-83
2021/09/17 11:20:24;;;;;;;17.90;13.43;;;21.40;99.90;;;;;;5116524;27;20471;-83
2021/09/17 11:22:58;;;;;;;20.53;15.00;;;21.40;99.90;;;;;;5123981;27;20459;-86
2021/09/17 11:25:30;;;;;;;17.50;13.40;;;21.40;99.90;;;;;;5122114;27;20994;-85
2021/09/17 11:27:59;;;;;;;16.50;12.90;;;21.40;99.90;;;;;;5126021;27;20479;-83
2021/09/17 11:30:28;;;;;;;17.70;12.90;;;21.40;99.90;;;;;;5119902;27;20542;-84
2021/09/17 11:32:55;;;;;;;16.67;11.80;;;21.50;99.90;;;;;;5118610;27;20452;-84
2021/09/17 11:35:23;;;;;;;18.00;15.57;;;21.50;99.90;;;;;;5118450;27;20571;-86
2021/09/17 11:37:55;;;;;;;18.40;14.33;;;21.50;99.90;;;;;;5119273;27;20489;-84
2021/09/17 11:40:24;;;;;;;13.63;11.00;;;21.50;99.90;;;;;;5114055;27;20471;-84
2021/09/17 11:42:51;;;;;;;20.07;14.47;;;21.60;99.90;;;;;;5117469;27;20457;-84
2021/09/17 11:45:23;;;;;;;13.70;9.63;;;21.60;99.90;;;;;;5117866;27;20467;-84
2021/09/17 11:47:53;;;;;;;18.60;14.37;;;21.60;99.90;;;;;;5112381;27;20796;-83
2021/09/17 11:50:21;;;;;;;20.83;14.13;;;21.60;99.90;;;;;;5117743;27;20469;-83
2021/09/17 11:52:51;;;;;;;20.07;15.17;;;21.60;99.90;;;;;;5117419;27;20460;-84
2021/09/17 11:55:20;;;;;;;20.00;16.43;;;21.70;99.90;;;;;;5120007;27;20970;-84
2021/09/17 11:57:48;;;;;;;21.80;14.60;;;21.70;99.90;;;;;;5113873;27;20498;-84
2021/09/17 12:00:17;;;;;;;17.93;11.70;;;21.60;99.90;;;;;;5120177;27;21279;-83
2021/09/17 12:02:46;;;;;;;21.33;14.73;;;21.60;99.90;;;;;;5122014;27;20559;-84
2021/09/17 12:05:17;;;;;;;24.40;14.07;;;21.70;99.90;;;;;;5120944;27;20567;-83
2021/09/17 12:07:48;;;;;;;19.90;14.10;;;21.70;99.90;;;;;;5122109;27;20568;-84
2021/09/17 12:10:19;;;;;;;18.80;14.30;;;21.70;99.90;;;;;;5116319;27;20496;-84
2021/09/17 12:12:48;;;;;;;17.70;14.37;;;21.70;99.90;;;;;;5111631;27;20464;-84
2021/09/17 12:15:25;;;;;;;16.97;12.67;;;21.80;99.90;;;;;;5117943;27;20556;-84
2021/09/17 12:17:55;;;;;;;19.00;13.63;;;21.80;99.90;;;;;;5119027;27;20488;-84
2021/09/17 12:20:37;;;;;;;18.80;13.77;;;21.90;99.90;;;;;;5119884;27;20551;-85
2021/09/17 12:23:05;;;;;;;17.23;10.67;;;21.90;99.90;;;;;;5112821;27;20552;-83
2021/09/17 12:25:33;;;;;;;20.87;15.07;;;22.00;99.90;;;;;;5112447;27;20485;-83
2021/09/17 12:28:02;;;;;;;18.53;15.07;;;22.00;99.90;;;;;;5115605;27;20473;-84
2021/09/17 12:30:32;;;;;;;22.73;16.83;;;22.10;99.90;;;;;;5117196;27;20464;-86
2021/09/17 12:33:11;;;;;;;19.03;15.73;;;22.10;99.90;;;;;;5121442;27;20472;-84
2021/09/17 12:35:41;;;;;;;18.47;16.17;;;22.20;99.90;;;;;;5117344;27;20466;-84
2021/09/17 12:38:09;;;;;;;20.27;16.43;;;22.20;99.90;;;;;;5117362;27;20483;-84